Airfield :
LOGIN :

Register | Disclaimer

   EN    FR    IT 

 










Legend :    VFR   Marginal VFR   IFR   Intensive IFR   Very Intensive IFR
Visi :
Ceiling :
>= 8 km
>= 3000ft
5 to 8 km
1000 to 3000 ft
1500m to 5 km
500 to 1000 ft
800 to 1500m
200 to 500 ft
< 800m
< 200 ft
Symbols :   Thunderstorms  Fog  Heavy snow  Heavy precipitations  Wind > 20 kt
SIGMETs :     Misc.  Thunderstorms  Icing  Turbulence  Mountain Waves  Volcanic Ashes






- Airport Elevation : 614 ft
- IATA code : CRL


EBCI - Charleroi

CURRENT METAR :
  • 192050Z 04006KT 010V070 4200 -TSRA FEW040CB 18/17 Q1009 TEMPO VRB22G38KT 2000 TSRAGR SCT012CB

EXPIRED METARs :
  • 192020Z 03008KT 7000 -TSRA FEW020CB 19/17 Q1008 TEMPO VRB22G38KT 2000 TSRAGR SCT012CB
  • 191950Z 04009KT 7000 -TSRA SCT013CB 19/17 Q1008 TEMPO VRB22G38KT 2000 TSRAGR SCT012CB
  • 191920Z 03008KT 9999 VCTS FEW023CB 19/16 Q1010 TEMPO VRB22G38KT 2000 TSRAGR SCT020CB
  • 191850Z 03009KT 9999 FEW025 20/17 Q1009 NOSIG
  • 191820Z 03009KT 9999 FEW025 20/17 Q1011 NOSIG
  • 191750Z 03010KT 9999 FEW025 20/17 Q1011 NOSIG

TAF TAF EBCI
Valid from the 19 at 18:00 until the 21 at 00:00 UTC


191710Z 1918/2024 05009KT 9999 SCT030
PROB40
TEMPO 1920/1923 VRB20G35KT 3000 TSRA TSRAGR BKN008 BKN035CB
PROB30
TEMPO 1920/1923 VRB25G40KT 1500 +TSRAGR SQ
PROB30
TEMPO 1923/2006 BKN007
BECMG 2003/2005 21010KT
BECMG 2013/2015 34005KT
PROB30
TEMPO 2018/2024 VRB22G36KT 3000 TSRA TSRAGR



MET'MAP, your aeronautical weather chart ! - Copyright ORBIFLY December 2007 - Disclaimer

ORBIFLY MET'MAP TEAM :

Programming & Development : Alexandra Zaïnal
Concept & original design : Baudouin d'Aumeries
Assistance for programming : Marc-Olivier Méhu
Technical & hardware support : Manuel Goepfert

Contact : metmap@orbifly.com




SOURCES & CREDITS :

   NOAA